createdAt,value
2018-04-16T00:01:34.514Z,9.37
2018-04-16T00:04:01.956Z,8.57
2018-04-16T00:06:29.385Z,8.33
2018-04-16T00:08:57.770Z,8.33
2018-04-16T00:11:25.261Z,8.23
2018-04-16T00:13:52.698Z,9.07
2018-04-16T00:16:20.142Z,8.70
2018-04-16T00:18:47.576Z,8.50
2018-04-16T00:21:15.085Z,9.27
2018-04-16T00:23:42.521Z,10.30
2018-04-16T00:26:09.978Z,8.73
2018-04-16T00:28:37.410Z,9.03
2018-04-16T00:31:04.874Z,8.90
2018-04-16T00:33:37.850Z,9.10
2018-04-16T00:36:10.921Z,8.23
2018-04-16T00:38:44.056Z,8.87
2018-04-16T00:54:47.888Z,9.30
2018-04-16T00:57:20.980Z,10.23
2018-04-16T00:59:54.014Z,9.87
2018-04-16T01:02:27.005Z,10.00
2018-04-16T01:05:00.129Z,8.80
2018-04-16T01:07:33.277Z,9.37
2018-04-16T01:10:06.289Z,9.23
2018-04-16T01:12:39.396Z,9.70
2018-04-16T01:15:12.465Z,9.97
2018-04-16T01:17:45.582Z,9.63
2018-04-16T01:20:18.710Z,8.07
2018-04-16T01:22:51.732Z,9.60
2018-04-16T01:25:24.788Z,10.93
2018-04-16T01:27:57.857Z,9.50
2018-04-16T01:30:30.803Z,9.97
2018-04-16T01:33:03.958Z,11.23
2018-04-16T01:35:37.110Z,10.17
2018-04-16T01:38:10.518Z,10.07
2018-04-16T01:40:43.652Z,9.97
2018-04-16T01:43:16.752Z,9.70
2018-04-16T01:45:49.782Z,9.70
2018-04-16T01:48:22.840Z,10.47
2018-04-16T01:50:55.990Z,10.10
2018-04-16T01:53:29.102Z,11.23
2018-04-16T01:56:02.142Z,9.70
2018-04-16T01:58:35.310Z,10.43
2018-04-16T02:01:08.507Z,10.30
2018-04-16T02:03:41.518Z,10.77
2018-04-16T02:06:14.541Z,9.67
2018-04-16T02:08:47.648Z,9.83
2018-04-16T02:11:20.688Z,9.97
2018-04-16T02:13:53.670Z,9.80
2018-04-16T02:16:26.824Z,11.00
2018-04-16T02:18:59.883Z,9.97
2018-04-16T02:21:32.919Z,9.80
2018-04-16T02:24:06.079Z,9.20
2018-04-16T02:26:39.096Z,9.53
2018-04-16T02:29:12.222Z,10.47
2018-04-16T02:31:45.396Z,9.97
2018-04-16T02:34:18.521Z,10.37
2018-04-16T02:36:51.501Z,9.57
2018-04-16T02:39:24.608Z,10.10
2018-04-16T02:41:57.689Z,9.40
2018-04-16T02:44:30.793Z,9.43
2018-04-16T02:47:03.872Z,9.80
2018-04-16T02:49:36.838Z,9.40
2018-04-16T02:52:09.884Z,9.93
2018-04-16T02:54:42.866Z,9.60
2018-04-16T02:57:15.874Z,8.67
2018-04-16T02:59:48.856Z,9.00
2018-04-16T03:02:22.071Z,8.07
2018-04-16T03:04:55.071Z,8.50
2018-04-16T03:07:28.211Z,7.27
2018-04-16T03:10:01.237Z,8.53
2018-04-16T03:12:34.165Z,7.83
2018-04-16T03:15:07.229Z,7.40
2018-04-16T03:17:40.355Z,6.73
2018-04-16T03:20:13.329Z,7.68
2018-04-16T03:22:46.423Z,7.30
2018-04-16T03:25:19.458Z,6.80
2018-04-16T03:27:52.625Z,7.40
2018-04-16T03:30:26.374Z,6.80
2018-04-16T03:32:59.366Z,8.30
2018-04-16T03:35:32.339Z,8.73
2018-04-16T03:38:05.353Z,7.50
2018-04-16T03:40:38.342Z,7.70
2018-04-16T03:43:11.345Z,6.57
2018-04-16T03:45:44.501Z,6.80
2018-04-16T03:48:18.013Z,7.30
2018-04-16T03:50:51.212Z,6.33
2018-04-16T03:53:30.429Z,6.90
2018-04-16T03:55:57.871Z,7.60
2018-04-16T03:58:25.300Z,7.60
2018-04-16T04:00:52.740Z,6.77
2018-04-16T04:03:20.188Z,6.10
2018-04-16T04:05:47.646Z,5.93
2018-04-16T04:08:15.098Z,7.67
2018-04-16T04:10:42.557Z,6.47
2018-04-16T04:13:09.996Z,6.63
2018-04-16T04:15:37.461Z,6.00
2018-04-16T04:18:04.924Z,5.33
2018-04-16T04:20:32.348Z,5.43
2018-04-16T04:23:11.740Z,7.37
2018-04-16T04:25:50.840Z,6.53
2018-04-16T04:28:29.961Z,7.07
2018-04-16T04:30:57.433Z,7.97
2018-04-16T04:33:24.853Z,5.40
2018-04-16T04:35:52.321Z,5.67
2018-04-16T04:38:19.772Z,4.80
2018-04-16T04:40:47.201Z,5.60
2018-04-16T04:43:14.741Z,5.53
2018-04-16T04:45:42.157Z,6.20
2018-04-16T04:48:09.585Z,6.07
2018-04-16T04:50:37.025Z,6.90
2018-04-16T04:53:04.523Z,6.70
2018-04-16T04:55:31.932Z,7.00
2018-04-16T04:57:59.388Z,6.20
2018-04-16T05:00:26.890Z,6.80
2018-04-16T05:02:54.324Z,6.27
2018-04-16T05:05:21.764Z,7.10
2018-04-16T05:07:49.262Z,8.03
2018-04-16T05:10:16.718Z,6.77
2018-04-16T05:12:44.166Z,10.00
2018-04-16T05:15:11.616Z,7.37
2018-04-16T05:17:39.078Z,8.43
2018-04-16T05:20:06.518Z,7.00
2018-04-16T05:22:34.035Z,8.47
2018-04-16T05:25:01.477Z,9.80
2018-04-16T05:27:28.920Z,8.77
2018-04-16T05:30:00.717Z,8.53
2018-04-16T05:32:28.214Z,9.53
2018-04-16T05:34:55.605Z,12.30
2018-04-16T05:37:23.110Z,9.53
2018-04-16T05:39:50.573Z,11.47
2018-04-16T05:42:18.025Z,11.30
2018-04-16T05:44:45.485Z,11.90
2018-04-16T05:47:12.924Z,12.90
2018-04-16T05:49:40.478Z,12.53
2018-04-16T05:52:07.912Z,12.40
2018-04-16T05:54:35.359Z,13.30
2018-04-16T05:57:02.814Z,13.03
2018-04-16T05:59:30.310Z,12.27
2018-04-16T06:01:57.746Z,12.43
2018-04-16T06:04:25.235Z,13.63
2018-04-16T06:06:52.666Z,13.60
2018-04-16T06:09:20.121Z,12.60
2018-04-16T06:11:47.607Z,13.60
2018-04-16T06:14:15.052Z,13.07
2018-04-16T06:16:42.489Z,13.03
2018-04-16T06:19:10.012Z,12.63
2018-04-16T06:21:37.445Z,12.00
2018-04-16T06:24:04.989Z,13.50
2018-04-16T06:26:32.437Z,11.57
2018-04-16T06:28:59.964Z,13.83
2018-04-16T06:31:27.391Z,14.07
2018-04-16T06:33:54.849Z,17.20
2018-04-16T06:36:22.281Z,13.60
2018-04-16T06:38:52.086Z,15.17
2018-04-16T06:41:19.531Z,14.60
2018-04-16T06:43:47.001Z,13.83
2018-04-16T06:46:14.442Z,15.40
2018-04-16T06:48:41.886Z,14.60
2018-04-16T06:51:09.324Z,14.30
2018-04-16T06:53:36.763Z,15.00
2018-04-16T06:56:04.214Z,14.93
2018-04-16T06:58:31.658Z,13.93
2018-04-16T07:00:59.127Z,14.60
2018-04-16T07:03:26.839Z,14.80
2018-04-16T07:05:54.350Z,12.97
2018-04-16T07:08:22.025Z,13.67
2018-04-16T07:10:49.774Z,12.57
2018-04-16T07:13:17.302Z,12.43
2018-04-16T07:15:44.760Z,12.77
2018-04-16T07:18:12.205Z,13.20
2018-04-16T07:20:39.668Z,12.47
2018-04-16T07:23:07.115Z,11.70
2018-04-16T07:25:34.552Z,10.63
2018-04-16T07:28:02.002Z,12.13
2018-04-16T07:30:29.446Z,14.60
2018-04-16T07:32:56.887Z,10.13
2018-04-16T07:35:24.405Z,8.23
2018-04-16T07:37:51.833Z,8.30
2018-04-16T07:40:19.280Z,8.27
2018-04-16T07:42:46.712Z,8.73
2018-04-16T07:45:14.132Z,8.20
2018-04-16T07:47:41.865Z,8.80
2018-04-16T07:50:09.311Z,9.90
2018-04-16T07:52:36.737Z,8.80
2018-04-16T07:55:04.184Z,7.50
2018-04-16T07:57:31.617Z,8.17
2018-04-16T07:59:59.048Z,10.33
2018-04-16T08:02:26.498Z,9.90
2018-04-16T08:04:54.196Z,9.97
2018-04-16T08:07:21.686Z,10.00
2018-04-16T08:09:49.130Z,11.10
2018-04-16T08:12:16.562Z,12.30
2018-04-16T08:14:44.002Z,12.60
2018-04-16T08:17:11.470Z,12.33
2018-04-16T08:19:38.908Z,12.13
2018-04-16T08:22:06.344Z,12.70
2018-04-16T08:24:33.828Z,11.40
2018-04-16T08:27:01.331Z,11.40
2018-04-16T08:29:28.778Z,11.70
2018-04-16T08:31:56.220Z,11.00
2018-04-16T08:34:23.704Z,10.90
2018-04-16T08:36:51.140Z,13.23
2018-04-16T08:39:18.646Z,12.50
2018-04-16T08:41:46.085Z,12.40
2018-04-16T08:44:13.518Z,23.93
2018-04-16T08:46:41.143Z,12.70
2018-04-16T08:49:08.640Z,13.10
2018-04-16T08:51:36.115Z,12.30
2018-04-16T08:54:03.566Z,15.97
2018-04-16T08:56:31.003Z,18.33
2018-04-16T08:58:58.445Z,20.10
2018-04-16T09:01:25.917Z,35.20
2018-04-16T09:03:53.378Z,19.67
2018-04-16T09:06:20.811Z,28.23
2018-04-16T09:08:48.323Z,23.43
2018-04-16T09:11:15.732Z,20.30
2018-04-16T09:13:43.161Z,22.10
2018-04-16T09:16:10.622Z,20.83
2018-04-16T09:18:38.064Z,21.47
2018-04-16T09:21:05.500Z,18.13
2018-04-16T09:23:32.949Z,17.00
2018-04-16T09:26:00.505Z,19.37
2018-04-16T09:28:27.937Z,16.90
2018-04-16T09:30:55.417Z,16.30
2018-04-16T09:33:22.859Z,17.57
2018-04-16T09:35:50.301Z,18.37
2018-04-16T09:38:17.755Z,18.37
2018-04-16T09:40:45.189Z,18.67
2018-04-16T09:43:12.693Z,17.73
2018-04-16T09:45:40.153Z,18.83
2018-04-16T09:48:07.585Z,17.20
2018-04-16T09:50:35.061Z,16.13
2018-04-16T09:53:02.510Z,18.03
2018-04-16T09:55:29.952Z,19.27
2018-04-16T09:57:57.402Z,18.20
2018-04-16T10:00:28.695Z,19.47
2018-04-16T10:02:57.905Z,19.90
2018-04-16T10:05:25.587Z,19.60
2018-04-16T10:07:53.022Z,19.20
2018-04-16T10:10:20.588Z,19.70
2018-04-16T10:12:48.040Z,17.70
2018-04-16T10:15:15.484Z,18.63
2018-04-16T10:17:42.985Z,16.97
2018-04-16T10:20:10.502Z,17.10
2018-04-16T10:22:37.958Z,15.07
2018-04-16T10:25:05.416Z,14.90
2018-04-16T10:27:32.856Z,16.60
2018-04-16T10:30:00.312Z,14.40
2018-04-16T10:32:27.752Z,15.37
2018-04-16T10:34:55.196Z,15.33
2018-04-16T10:37:22.941Z,14.00
2018-04-16T10:39:50.381Z,14.53
2018-04-16T10:42:17.941Z,15.43
2018-04-16T10:44:45.481Z,14.83
2018-04-16T10:47:12.952Z,15.33
2018-04-16T10:49:40.417Z,14.97
2018-04-16T10:52:07.843Z,15.67
2018-04-16T10:54:35.301Z,15.43
2018-04-16T10:57:02.768Z,14.40
2018-04-16T10:59:30.213Z,15.00
2018-04-16T11:01:57.641Z,15.03
2018-04-16T11:04:25.108Z,17.07
2018-04-16T11:06:52.559Z,15.47
2018-04-16T11:09:20.045Z,61.47
2018-04-16T11:11:47.486Z,15.77
2018-04-16T11:14:14.960Z,15.13
2018-04-16T11:16:42.388Z,15.07
2018-04-16T11:19:09.833Z,15.90
2018-04-16T11:21:37.286Z,14.13
2018-04-16T11:24:04.731Z,15.87
2018-04-16T11:26:32.216Z,15.00
2018-04-16T11:28:59.642Z,16.23
2018-04-16T11:31:27.082Z,16.47
2018-04-16T11:33:54.525Z,16.07
2018-04-16T11:36:21.965Z,15.10
2018-04-16T11:38:49.425Z,15.03
2018-04-16T11:41:16.889Z,15.23
2018-04-16T11:43:44.349Z,16.20
2018-04-16T11:46:11.781Z,16.10
2018-04-16T11:48:39.349Z,17.63
2018-04-16T11:51:06.797Z,15.17
2018-04-16T11:53:34.231Z,14.63
2018-04-16T11:56:01.689Z,15.87
2018-04-16T11:58:29.139Z,16.47
2018-04-16T12:00:56.577Z,16.93
2018-04-16T12:03:24.092Z,18.57
2018-04-16T12:05:51.536Z,18.77
2018-04-16T12:08:18.977Z,18.67
2018-04-16T12:10:46.404Z,19.87
2018-04-16T12:13:13.851Z,23.33
2018-04-16T12:15:41.291Z,21.53
2018-04-16T12:18:08.728Z,19.60
2018-04-16T12:20:36.210Z,23.40
2018-04-16T12:23:03.667Z,25.57
2018-04-16T12:25:31.124Z,26.00
2018-04-16T12:27:58.568Z,25.27
2018-04-16T12:30:26.014Z,26.63
2018-04-16T12:32:53.467Z,27.00
2018-04-16T12:35:20.953Z,29.13
2018-04-16T12:37:48.376Z,28.40
2018-04-16T12:40:15.896Z,27.40
2018-04-16T12:42:43.339Z,27.77
2018-04-16T12:45:10.906Z,27.13
2018-04-16T12:47:38.340Z,26.63
2018-04-16T12:50:05.812Z,25.53
2018-04-16T12:52:33.247Z,26.47
2018-04-16T12:55:00.731Z,24.70
2018-04-16T12:57:28.178Z,24.87
2018-04-16T12:59:55.629Z,22.70
2018-04-16T13:02:23.069Z,20.80
2018-04-16T13:04:50.513Z,21.23
2018-04-16T13:07:17.949Z,21.63
2018-04-16T13:09:45.401Z,20.47
2018-04-16T13:12:12.860Z,21.00
2018-04-16T13:14:40.401Z,20.80
2018-04-16T13:17:07.813Z,19.77
2018-04-16T13:19:35.276Z,20.47
2018-04-16T13:22:02.719Z,20.83
2018-04-16T13:24:30.161Z,20.77
2018-04-16T13:26:57.682Z,36.07
2018-04-16T13:29:25.142Z,22.83
2018-04-16T13:31:52.582Z,22.13
2018-04-16T13:34:20.092Z,18.53
2018-04-16T13:36:47.552Z,17.17
2018-04-16T13:39:14.992Z,18.12
2018-04-16T13:41:42.439Z,17.13
2018-04-16T13:44:09.898Z,16.97
2018-04-16T13:46:37.352Z,17.73
2018-04-16T13:49:04.805Z,16.60
2018-04-16T13:51:32.333Z,16.90
2018-04-16T13:54:00.025Z,15.80
2018-04-16T13:56:27.465Z,16.33
2018-04-16T13:58:55.145Z,17.50
2018-04-16T14:01:22.609Z,15.70
2018-04-16T14:03:50.051Z,16.00
2018-04-16T14:06:17.572Z,14.33
2018-04-16T14:08:45.023Z,15.23
2018-04-16T14:11:12.476Z,16.70
2018-04-16T14:13:39.909Z,16.20
2018-04-16T14:16:07.345Z,15.40
2018-04-16T14:18:35.112Z,15.20
2018-04-16T14:21:02.563Z,16.20
2018-04-16T14:23:30.000Z,15.37
2018-04-16T14:25:57.557Z,13.90
2018-04-16T14:28:24.982Z,15.77
2018-04-16T14:30:52.430Z,15.53
2018-04-16T14:33:19.878Z,17.50
2018-04-16T14:35:47.372Z,17.53
2018-04-16T14:38:14.841Z,16.00
2018-04-16T14:40:42.397Z,16.47
2018-04-16T14:43:09.833Z,16.77
2018-04-16T14:45:37.265Z,16.53
2018-04-16T14:48:04.729Z,18.07
2018-04-16T14:50:32.157Z,16.23
2018-04-16T14:52:59.677Z,15.83
2018-04-16T14:55:27.121Z,16.00
2018-04-16T14:57:54.557Z,15.70
2018-04-16T15:00:22.058Z,15.67
2018-04-16T15:02:49.530Z,17.33
2018-04-16T15:05:17.074Z,17.73
2018-04-16T15:07:44.624Z,17.80
2018-04-16T15:10:12.073Z,16.50
2018-04-16T15:12:39.560Z,19.73
2018-04-16T15:15:07.030Z,29.97
2018-04-16T15:17:34.600Z,22.43
2018-04-16T15:20:02.216Z,22.50
2018-04-16T15:22:30.482Z,20.90
2018-04-16T15:24:57.954Z,20.87
2018-04-16T15:27:25.434Z,19.60
2018-04-16T15:29:52.889Z,20.90
2018-04-16T15:32:20.342Z,20.67
2018-04-16T15:34:47.806Z,22.47
2018-04-16T15:37:15.339Z,21.80
2018-04-16T15:39:42.811Z,20.43
2018-04-16T15:42:10.605Z,21.13
2018-04-16T15:44:38.085Z,22.83
2018-04-16T15:47:05.520Z,20.70
2018-04-16T15:49:32.964Z,19.03
2018-04-16T15:52:00.560Z,18.73
2018-04-16T15:54:28.016Z,19.33
2018-04-16T15:56:55.532Z,21.40
2018-04-16T15:59:22.974Z,19.03
2018-04-16T16:01:50.419Z,18.03
2018-04-16T16:04:17.879Z,18.70
2018-04-16T16:06:45.307Z,19.93
2018-04-16T16:09:12.793Z,18.97
2018-04-16T16:11:40.317Z,19.20
2018-04-16T16:14:07.785Z,20.23
2018-04-16T16:16:35.235Z,19.70
2018-04-16T16:19:02.696Z,18.20
2018-04-16T16:21:30.136Z,19.83
2018-04-16T16:23:57.594Z,22.40
2018-04-16T16:26:25.143Z,21.47
2018-04-16T16:28:52.592Z,20.63
2018-04-16T16:31:20.146Z,25.70
2018-04-16T16:33:47.706Z,22.30
2018-04-16T16:36:15.143Z,22.87
2018-04-16T16:38:42.602Z,30.13
2018-04-16T16:41:10.081Z,24.43
2018-04-16T16:43:37.534Z,16.17
2018-04-16T16:46:04.999Z,14.00
2018-04-16T16:48:32.449Z,14.40
2018-04-16T16:50:59.974Z,13.80
2018-04-16T16:53:27.439Z,13.83
2018-04-16T16:55:54.900Z,16.30
2018-04-16T16:58:22.478Z,13.87
2018-04-16T17:00:49.916Z,8.60
2018-04-16T17:03:17.368Z,8.03
2018-04-16T17:05:44.794Z,6.10
2018-04-16T17:08:12.245Z,5.53
2018-04-16T17:10:39.676Z,5.07
2018-04-16T17:13:07.113Z,6.20
2018-04-16T17:15:34.549Z,5.20
2018-04-16T17:18:02.010Z,4.90
2018-04-16T17:20:29.447Z,3.03
2018-04-16T17:22:56.919Z,2.87
2018-04-16T17:25:24.401Z,4.07
2018-04-16T17:27:51.831Z,3.53
2018-04-16T17:30:19.567Z,4.13
2018-04-16T17:32:47.019Z,3.00
2018-04-16T17:35:14.465Z,2.23
2018-04-16T17:37:41.899Z,1.97
2018-04-16T17:40:09.328Z,3.30
2018-04-16T17:42:36.773Z,2.90
2018-04-16T17:45:04.220Z,2.87
2018-04-16T17:47:31.705Z,3.73
2018-04-16T17:49:59.160Z,4.43
2018-04-16T17:52:26.635Z,1.90
2018-04-16T17:54:54.089Z,2.47
2018-04-16T17:57:21.541Z,3.33
2018-04-16T17:59:49.124Z,6.20
2018-04-16T18:02:16.552Z,6.37
2018-04-16T18:04:43.980Z,6.50
2018-04-16T18:07:11.458Z,6.70
2018-04-16T18:09:38.927Z,4.40
2018-04-16T18:12:06.368Z,8.17
2018-04-16T18:14:33.820Z,6.87
2018-04-16T18:17:01.266Z,8.77
2018-04-16T18:19:28.746Z,7.00
2018-04-16T18:21:56.218Z,7.73
2018-04-16T18:24:23.659Z,8.90
2018-04-16T18:26:51.118Z,6.13
2018-04-16T18:29:18.682Z,9.03
2018-04-16T18:31:46.146Z,6.37
2018-04-16T18:34:13.582Z,9.90
2018-04-16T18:36:41.292Z,8.97
2018-04-16T18:39:08.738Z,9.20
2018-04-16T18:41:36.265Z,6.10
2018-04-16T18:44:03.704Z,13.23
2018-04-16T18:46:31.156Z,31.77
2018-04-16T18:48:58.616Z,11.67
2018-04-16T18:51:26.065Z,6.70
2018-04-16T18:53:53.510Z,8.13
2018-04-16T18:56:20.968Z,8.47
2018-04-16T18:58:48.425Z,7.50
2018-04-16T19:01:15.864Z,9.80
2018-04-16T19:03:43.320Z,5.53
2018-04-16T19:06:10.872Z,8.13
2018-04-16T19:08:38.316Z,6.87
2018-04-16T19:11:05.756Z,5.90
2018-04-16T19:13:33.215Z,6.50
2018-04-16T19:16:00.825Z,5.97
2018-04-16T19:18:28.122Z,6.03
2018-04-16T19:21:01.157Z,7.17
2018-04-16T19:23:29.036Z,5.93
2018-04-16T19:25:56.541Z,10.37
2018-04-16T19:28:23.987Z,7.87
2018-04-16T19:30:51.475Z,7.30
2018-04-16T19:33:25.483Z,39.00
2018-04-16T19:35:52.937Z,24.27
2018-04-16T19:38:20.436Z,9.73
2018-04-16T19:40:47.898Z,8.90
2018-04-16T19:43:15.386Z,24.50
2018-04-16T19:45:42.857Z,6.90
2018-04-16T19:48:10.310Z,7.20
2018-04-16T19:50:37.752Z,6.87
2018-04-16T19:53:05.190Z,7.13
2018-04-16T19:55:38.427Z,8.43
2018-04-16T19:58:11.592Z,9.60
2018-04-16T20:00:39.059Z,6.33
2018-04-16T20:03:12.357Z,7.53
2018-04-16T20:05:39.805Z,8.60
2018-04-16T20:08:07.239Z,13.67
2018-04-16T20:10:34.685Z,13.27
2018-04-16T20:13:02.141Z,10.40
2018-04-16T20:15:29.570Z,8.23
2018-04-16T20:17:56.997Z,7.60
2018-04-16T20:20:24.894Z,8.80
2018-04-16T20:22:52.325Z,9.87
2018-04-16T20:25:19.775Z,9.30
2018-04-16T20:27:47.225Z,12.23
2018-04-16T20:30:14.748Z,13.00
2018-04-16T20:32:42.278Z,11.03
2018-04-16T20:35:09.688Z,8.93
2018-04-16T20:37:37.177Z,7.83
2018-04-16T20:40:04.641Z,11.43
2018-04-16T20:42:32.084Z,18.27
2018-04-16T20:44:59.524Z,11.87
2018-04-16T20:47:26.992Z,9.57
2018-04-16T20:49:54.585Z,10.63
2018-04-16T20:52:22.022Z,11.20
2018-04-16T20:54:49.470Z,11.73
2018-04-16T20:57:16.914Z,9.17
2018-04-16T20:59:44.341Z,9.33
2018-04-16T21:02:11.825Z,8.80
2018-04-16T21:04:39.273Z,8.90
2018-04-16T21:07:06.731Z,10.17
2018-04-16T21:09:34.181Z,7.97
2018-04-16T21:12:01.641Z,8.03
2018-04-16T21:14:29.112Z,7.17
2018-04-16T21:16:56.578Z,8.90
2018-04-16T21:19:24.022Z,7.90
2018-04-16T21:21:51.457Z,8.43
2018-04-16T21:24:18.926Z,9.13
2018-04-16T21:26:46.463Z,9.67
2018-04-16T21:29:13.905Z,9.43
2018-04-16T21:31:41.369Z,9.03
2018-04-16T21:34:08.863Z,8.70
2018-04-16T21:36:36.313Z,12.63
2018-04-16T21:39:03.839Z,9.63
2018-04-16T21:41:31.343Z,10.10
2018-04-16T21:43:58.819Z,10.83
2018-04-16T21:46:26.266Z,10.60
2018-04-16T21:48:53.817Z,10.70
2018-04-16T21:51:21.259Z,12.07
2018-04-16T21:53:48.730Z,12.50
2018-04-16T21:56:16.174Z,12.97
2018-04-16T21:58:43.660Z,12.00
2018-04-16T22:01:11.098Z,12.43
2018-04-16T22:03:38.551Z,23.30
2018-04-16T22:06:06.029Z,14.07
2018-04-16T22:08:33.472Z,12.83
2018-04-16T22:11:00.929Z,13.07
2018-04-16T22:13:28.369Z,13.00
2018-04-16T22:15:56.040Z,13.80
2018-04-16T22:18:23.521Z,14.07
2018-04-16T22:20:51.113Z,13.70
2018-04-16T22:23:18.605Z,12.90
2018-04-16T22:25:46.090Z,13.13
2018-04-16T22:28:13.658Z,12.63
2018-04-16T22:30:41.101Z,14.33
2018-04-16T22:33:08.687Z,17.43
2018-04-16T22:35:36.128Z,14.50
2018-04-16T22:38:03.571Z,14.57
2018-04-16T22:40:31.034Z,13.07
2018-04-16T22:42:58.486Z,13.67
2018-04-16T22:45:25.932Z,14.97
2018-04-16T22:47:53.394Z,14.63
2018-04-16T22:50:21.654Z,18.50
2018-04-16T22:52:49.094Z,16.30
2018-04-16T22:55:16.548Z,15.80
2018-04-16T22:57:44.069Z,17.70
2018-04-16T23:00:11.526Z,19.90
2018-04-16T23:02:38.968Z,15.87
2018-04-16T23:05:06.418Z,18.60
2018-04-16T23:07:33.846Z,21.47
2018-04-16T23:10:01.330Z,19.70
2018-04-16T23:12:28.774Z,17.40
2018-04-16T23:14:56.223Z,16.80
2018-04-16T23:17:23.703Z,18.33
2018-04-16T23:19:51.137Z,16.03
2018-04-16T23:22:18.621Z,14.87
2018-04-16T23:24:46.065Z,20.53
2018-04-16T23:27:13.522Z,16.83
2018-04-16T23:29:40.945Z,18.87
2018-04-16T23:32:08.401Z,16.40
2018-04-16T23:34:35.829Z,15.80
2018-04-16T23:37:03.351Z,18.37
2018-04-16T23:39:31.442Z,19.37
2018-04-16T23:41:59.100Z,18.00
2018-04-16T23:44:26.548Z,18.07
2018-04-16T23:46:53.998Z,17.67
2018-04-16T23:49:21.435Z,15.90
2018-04-16T23:51:48.876Z,16.50
2018-04-16T23:54:16.334Z,14.87
2018-04-16T23:56:43.842Z,16.57
2018-04-16T23:59:11.289Z,16.80
